createdAt,value
2023-10-31T00:00:17.371Z,39.28
2023-10-31T00:00:47.507Z,39.27
2023-10-31T00:01:17.484Z,39.32
2023-10-31T00:01:47.546Z,39.32
2023-10-31T00:02:17.553Z,39.30
2023-10-31T00:02:47.709Z,39.32
2023-10-31T00:03:17.713Z,39.29
2023-10-31T00:03:47.810Z,39.31
2023-10-31T00:04:17.850Z,39.28
2023-10-31T00:04:47.926Z,39.27
2023-10-31T00:05:20.678Z,39.28
2023-10-31T00:05:47.976Z,39.31
2023-10-31T00:06:17.970Z,39.31
2023-10-31T00:06:48.087Z,39.27
2023-10-31T00:07:18.122Z,39.29
2023-10-31T00:07:48.184Z,39.26
2023-10-31T00:08:18.182Z,39.28
2023-10-31T00:08:48.166Z,39.25
2023-10-31T00:09:48.246Z,39.26
2023-10-31T00:10:18.249Z,39.29
2023-10-31T00:11:18.325Z,39.26
2023-10-31T00:11:48.443Z,39.29
2023-10-31T00:12:18.456Z,39.35
2023-10-31T00:12:48.443Z,39.32
2023-10-31T00:13:18.567Z,39.28
2023-10-31T00:13:48.599Z,39.28
2023-10-31T00:14:29.787Z,39.29
2023-10-31T00:14:48.616Z,39.31
2023-10-31T00:15:18.697Z,39.31
2023-10-31T00:15:48.766Z,39.32
2023-10-31T00:16:18.788Z,39.28
2023-10-31T00:16:48.870Z,39.31
2023-10-31T00:17:18.918Z,39.32
2023-10-31T00:17:48.997Z,39.29
2023-10-31T00:18:19.008Z,39.28
2023-10-31T00:18:49.032Z,39.29
2023-10-31T00:19:19.061Z,39.29
2023-10-31T00:19:49.149Z,39.25
2023-10-31T00:20:19.188Z,39.29
2023-10-31T00:20:49.203Z,39.29
2023-10-31T00:21:20.533Z,39.32
2023-10-31T00:21:49.340Z,39.31
2023-10-31T00:22:19.384Z,39.28
2023-10-31T00:22:49.447Z,39.31
2023-10-31T00:23:19.480Z,39.29
2023-10-31T00:23:49.516Z,39.29
2023-10-31T00:24:19.551Z,39.31
2023-10-31T00:24:49.576Z,39.22
2023-10-31T00:25:19.603Z,39.29
2023-10-31T00:25:49.764Z,39.25
2023-10-31T00:26:19.780Z,39.25
2023-10-31T00:26:49.820Z,39.24
2023-10-31T00:27:19.857Z,39.26
2023-10-31T00:27:49.885Z,39.31
2023-10-31T00:28:19.914Z,39.29
2023-10-31T00:28:49.999Z,39.27
2023-10-31T00:29:20.031Z,39.26
2023-10-31T00:29:50.065Z,39.25
2023-10-31T00:30:20.095Z,39.29
2023-10-31T00:30:50.140Z,39.29
2023-10-31T00:31:20.166Z,39.25
2023-10-31T00:31:50.231Z,39.28
2023-10-31T00:32:20.253Z,39.29
2023-10-31T00:32:50.332Z,39.32
2023-10-31T00:33:20.327Z,39.26
2023-10-31T00:33:50.383Z,39.26
2023-10-31T00:34:20.449Z,39.32
2023-10-31T00:34:50.541Z,39.29
2023-10-31T00:35:20.594Z,39.29
2023-10-31T00:35:50.921Z,39.33
2023-10-31T00:36:20.667Z,39.31
2023-10-31T00:37:20.700Z,39.32
2023-10-31T00:37:50.756Z,39.31
2023-10-31T00:38:20.780Z,39.32
2023-10-31T00:38:50.809Z,39.29
2023-10-31T00:39:20.842Z,39.35
2023-10-31T00:39:50.881Z,39.30
2023-10-31T00:40:20.923Z,39.31
2023-10-31T00:40:50.966Z,39.30
2023-10-31T00:41:21.006Z,39.30
2023-10-31T00:41:51.308Z,39.32
2023-10-31T00:42:21.101Z,39.28
2023-10-31T00:43:21.185Z,39.31
2023-10-31T00:43:51.253Z,39.29
2023-10-31T00:44:21.303Z,39.29
2023-10-31T00:44:51.368Z,39.32
2023-10-31T00:45:21.390Z,39.29
2023-10-31T00:45:51.443Z,39.30
2023-10-31T00:46:21.461Z,39.30
2023-10-31T00:46:51.498Z,39.31
2023-10-31T00:47:21.563Z,39.29
2023-10-31T00:47:51.637Z,39.33
2023-10-31T00:48:21.729Z,39.36
2023-10-31T00:48:51.782Z,39.26
2023-10-31T00:49:21.794Z,39.27
2023-10-31T00:49:51.882Z,39.32
2023-10-31T00:50:21.907Z,39.31
2023-10-31T00:50:51.932Z,39.31
2023-10-31T00:51:22.000Z,39.31
2023-10-31T00:51:52.003Z,39.26
2023-10-31T00:52:22.029Z,39.32
2023-10-31T00:52:52.117Z,39.33
2023-10-31T00:53:22.149Z,39.26
2023-10-31T00:53:52.182Z,39.29
2023-10-31T00:54:22.219Z,39.27
2023-10-31T00:54:52.256Z,39.30
2023-10-31T00:55:22.283Z,39.32
2023-10-31T00:55:52.365Z,39.30
2023-10-31T00:56:22.390Z,39.29
2023-10-31T00:56:52.430Z,39.29
2023-10-31T00:57:22.449Z,39.36
2023-10-31T00:57:52.485Z,39.27
2023-10-31T00:58:22.521Z,39.29
2023-10-31T00:58:52.622Z,39.31
2023-10-31T00:59:22.668Z,39.32
2023-10-31T00:59:52.697Z,39.32
2023-10-31T01:00:22.724Z,39.28
2023-10-31T01:00:52.781Z,39.29
2023-10-31T01:01:22.872Z,39.34
2023-10-31T01:01:52.922Z,39.34
2023-10-31T01:02:23.009Z,39.29
2023-10-31T01:02:53.103Z,39.31
2023-10-31T01:03:23.144Z,39.31
2023-10-31T01:03:53.097Z,39.27
2023-10-31T01:04:23.191Z,39.30
2023-10-31T01:04:53.256Z,39.33
2023-10-31T01:05:23.292Z,39.29
2023-10-31T01:05:53.303Z,39.30
2023-10-31T01:06:23.423Z,39.31
2023-10-31T01:06:53.439Z,39.32
2023-10-31T01:07:53.520Z,39.32
2023-10-31T01:08:23.513Z,39.27
2023-10-31T01:09:23.583Z,39.27
2023-10-31T01:09:53.704Z,39.33
2023-10-31T01:10:23.705Z,39.34
2023-10-31T01:11:23.771Z,39.29
2023-10-31T01:11:53.763Z,39.32
2023-10-31T01:12:23.763Z,39.30
2023-10-31T01:12:53.894Z,39.30
2023-10-31T01:13:23.906Z,39.31
2023-10-31T01:13:54.019Z,39.33
2023-10-31T01:14:24.124Z,39.34
2023-10-31T01:14:54.245Z,39.30
2023-10-31T01:15:24.240Z,39.30
2023-10-31T01:15:54.281Z,39.27
2023-10-31T01:16:24.356Z,39.30
2023-10-31T01:16:54.446Z,39.30
2023-10-31T01:17:24.473Z,39.31
2023-10-31T01:17:54.539Z,39.30
2023-10-31T01:18:24.567Z,39.31
2023-10-31T01:18:54.598Z,39.30
2023-10-31T01:19:24.623Z,39.25
2023-10-31T01:19:54.680Z,39.27
2023-10-31T01:20:24.698Z,39.30
2023-10-31T01:20:54.733Z,39.28
2023-10-31T01:21:24.756Z,39.28
2023-10-31T01:21:54.845Z,39.31
2023-10-31T01:22:24.893Z,39.32
2023-10-31T01:22:54.920Z,39.36
2023-10-31T01:23:24.970Z,39.35
2023-10-31T01:23:54.988Z,39.28
2023-10-31T01:24:25.018Z,39.31
2023-10-31T01:24:55.100Z,39.31
2023-10-31T01:25:25.148Z,39.27
2023-10-31T01:25:55.282Z,39.29
2023-10-31T01:26:25.185Z,39.28
2023-10-31T01:26:55.221Z,39.25
2023-10-31T01:27:25.264Z,39.32
2023-10-31T01:27:55.284Z,39.34
2023-10-31T01:28:25.315Z,39.29
2023-10-31T01:28:55.378Z,39.31
2023-10-31T01:29:25.412Z,39.32
2023-10-31T01:29:55.445Z,39.29
2023-10-31T01:30:25.485Z,39.31
2023-10-31T01:30:55.535Z,39.34
2023-10-31T01:31:25.582Z,39.28
2023-10-31T01:31:59.791Z,39.30
2023-10-31T01:32:25.847Z,39.32
2023-10-31T01:32:55.785Z,39.32
2023-10-31T01:33:25.821Z,39.29
2023-10-31T01:33:55.943Z,39.31
2023-10-31T01:34:25.766Z,39.34
2023-10-31T01:34:55.875Z,39.36
2023-10-31T01:35:25.881Z,39.32
2023-10-31T01:35:55.916Z,39.34
2023-10-31T01:36:25.950Z,39.31
2023-10-31T01:36:55.984Z,39.31
2023-10-31T01:37:26.010Z,39.34
2023-10-31T01:37:56.105Z,39.34
2023-10-31T01:38:26.120Z,39.27
2023-10-31T01:38:56.149Z,39.30
2023-10-31T01:39:26.178Z,39.34
2023-10-31T01:39:56.217Z,39.35
2023-10-31T01:40:26.257Z,39.34
2023-10-31T01:40:56.303Z,39.32
2023-10-31T01:41:26.331Z,39.31
2023-10-31T01:41:56.360Z,39.31
2023-10-31T01:42:26.406Z,39.30
2023-10-31T01:42:56.434Z,39.32
2023-10-31T01:43:26.467Z,39.34
2023-10-31T01:43:56.521Z,39.35
2023-10-31T01:44:26.551Z,39.29
2023-10-31T01:44:56.594Z,39.31
2023-10-31T01:45:26.635Z,39.28
2023-10-31T01:45:56.709Z,39.33
2023-10-31T01:46:26.719Z,39.32
2023-10-31T01:46:56.775Z,39.29
2023-10-31T01:47:26.837Z,39.32
2023-10-31T01:47:56.878Z,39.31
2023-10-31T01:48:26.921Z,39.32
2023-10-31T01:48:56.951Z,39.32
2023-10-31T01:49:26.984Z,39.33
2023-10-31T01:49:57.064Z,39.36
2023-10-31T01:50:27.095Z,39.34
2023-10-31T01:50:57.122Z,39.27
2023-10-31T01:51:27.153Z,39.35
2023-10-31T01:51:57.183Z,39.33
2023-10-31T01:52:27.224Z,39.31
2023-10-31T01:52:57.290Z,39.28
2023-10-31T01:53:27.362Z,39.31
2023-10-31T01:53:57.372Z,39.33
2023-10-31T01:54:27.407Z,39.28
2023-10-31T01:54:57.444Z,39.28
2023-10-31T01:55:27.473Z,39.34
2023-10-31T01:55:57.553Z,39.29
2023-10-31T01:56:27.601Z,39.28
2023-10-31T01:56:57.619Z,39.34
2023-10-31T01:57:27.685Z,39.28
2023-10-31T01:57:57.717Z,39.32
2023-10-31T01:58:27.748Z,39.31
2023-10-31T01:58:57.804Z,39.31
2023-10-31T01:59:27.813Z,39.32
2023-10-31T01:59:57.840Z,39.29
2023-10-31T02:00:27.874Z,39.32
2023-10-31T02:00:57.905Z,39.32
2023-10-31T02:01:27.969Z,39.33
2023-10-31T02:01:58.071Z,39.33
2023-10-31T02:02:28.073Z,39.32
2023-10-31T02:03:28.155Z,39.33
2023-10-31T02:03:58.096Z,39.28
2023-10-31T02:04:28.130Z,39.31
2023-10-31T02:04:58.177Z,39.31
2023-10-31T02:05:28.261Z,39.33
2023-10-31T02:05:58.284Z,39.35
2023-10-31T02:06:28.384Z,39.28
2023-10-31T02:06:58.379Z,39.33
2023-10-31T02:07:58.480Z,39.28
2023-10-31T02:08:28.492Z,39.33
2023-10-31T02:08:58.500Z,39.29
2023-10-31T02:09:28.615Z,39.32
2023-10-31T02:09:58.602Z,39.29
2023-10-31T02:10:28.724Z,39.28
2023-10-31T02:10:58.744Z,39.31
2023-10-31T02:11:58.810Z,39.36
2023-10-31T02:12:28.796Z,39.28
2023-10-31T02:12:58.807Z,39.29
2023-10-31T02:13:28.807Z,39.29
2023-10-31T02:14:28.885Z,39.25
2023-10-31T02:14:58.999Z,39.28
2023-10-31T02:15:29.006Z,39.29
2023-10-31T02:15:59.054Z,39.29
2023-10-31T02:16:29.099Z,39.29
2023-10-31T02:16:59.176Z,39.32
2023-10-31T02:17:29.207Z,39.32
2023-10-31T02:17:59.300Z,39.28
2023-10-31T02:18:29.335Z,39.31
2023-10-31T02:18:59.348Z,39.31
2023-10-31T02:19:29.387Z,39.35
2023-10-31T02:19:59.461Z,39.33
2023-10-31T02:20:29.505Z,39.29
2023-10-31T02:20:59.546Z,39.32
2023-10-31T02:21:29.578Z,39.28
2023-10-31T02:21:59.603Z,39.33
2023-10-31T02:22:29.652Z,39.31
2023-10-31T02:22:59.768Z,39.24
2023-10-31T02:23:29.798Z,39.27
2023-10-31T02:23:59.830Z,39.31
2023-10-31T02:24:29.882Z,39.28
2023-10-31T02:24:59.888Z,39.32
2023-10-31T02:25:29.916Z,39.33
2023-10-31T02:25:59.985Z,39.29
2023-10-31T02:26:30.018Z,39.32
2023-10-31T02:27:00.109Z,39.32
2023-10-31T02:27:30.327Z,39.31
2023-10-31T02:28:00.228Z,39.29
2023-10-31T02:29:00.411Z,39.29
2023-10-31T02:29:30.455Z,39.28
2023-10-31T02:30:00.535Z,39.22
2023-10-31T02:30:30.660Z,39.31
2023-10-31T02:31:00.702Z,39.33
2023-10-31T02:31:30.832Z,39.28
2023-10-31T02:32:00.829Z,39.31
2023-10-31T02:32:31.028Z,39.28
2023-10-31T02:33:01.003Z,39.29
2023-10-31T02:33:31.039Z,39.32
2023-10-31T02:34:01.075Z,39.31
2023-10-31T02:34:31.106Z,39.31
2023-10-31T02:35:01.156Z,39.32
2023-10-31T02:35:31.243Z,39.33
2023-10-31T02:36:01.363Z,39.35
2023-10-31T02:36:31.434Z,39.32
2023-10-31T02:37:01.502Z,39.32
2023-10-31T02:37:31.500Z,39.30
2023-10-31T02:38:01.583Z,39.32
2023-10-31T02:38:31.604Z,39.29
2023-10-31T02:39:01.632Z,39.32
2023-10-31T02:39:31.665Z,39.33
2023-10-31T02:40:01.723Z,39.33
2023-10-31T02:40:31.748Z,39.29
2023-10-31T02:41:01.818Z,39.32
2023-10-31T02:41:31.837Z,39.30
2023-10-31T02:42:01.908Z,39.33
2023-10-31T02:42:31.924Z,39.32
2023-10-31T02:43:01.959Z,39.29
2023-10-31T02:43:31.994Z,39.32
2023-10-31T02:44:02.086Z,39.36
2023-10-31T02:44:32.113Z,39.33
2023-10-31T02:45:02.148Z,39.33
2023-10-31T02:45:32.188Z,39.34
2023-10-31T02:46:02.277Z,39.32
2023-10-31T02:46:32.318Z,39.37
2023-10-31T02:47:02.392Z,39.29
2023-10-31T02:47:32.429Z,39.34
2023-10-31T02:48:02.501Z,39.33
2023-10-31T02:48:32.567Z,39.30
2023-10-31T02:49:02.599Z,39.32
2023-10-31T02:49:32.641Z,39.32
2023-10-31T02:50:02.729Z,39.32
2023-10-31T02:50:32.814Z,39.30
2023-10-31T02:51:02.857Z,39.34
2023-10-31T02:51:32.883Z,39.37
2023-10-31T02:52:02.917Z,39.36
2023-10-31T02:52:32.966Z,39.27
2023-10-31T02:53:03.016Z,39.31
2023-10-31T02:53:33.024Z,39.32
2023-10-31T02:54:03.056Z,39.33
2023-10-31T02:54:33.094Z,39.35
2023-10-31T02:55:03.136Z,39.34
2023-10-31T02:55:33.199Z,39.33
2023-10-31T02:56:03.257Z,39.29
2023-10-31T02:56:33.300Z,39.34
2023-10-31T02:57:03.334Z,39.26
2023-10-31T02:57:33.367Z,39.32
2023-10-31T02:58:03.410Z,39.34
2023-10-31T02:58:33.431Z,39.32
2023-10-31T02:59:03.489Z,39.27
2023-10-31T02:59:33.541Z,39.30
2023-10-31T03:00:03.591Z,39.29
2023-10-31T03:00:33.618Z,39.25
2023-10-31T03:01:03.648Z,39.29
2023-10-31T03:01:33.680Z,39.29
2023-10-31T03:02:03.753Z,39.30
2023-10-31T03:02:33.862Z,39.31
2023-10-31T03:03:04.107Z,39.36
2023-10-31T03:03:34.058Z,39.32
2023-10-31T03:04:04.033Z,39.30
2023-10-31T03:04:34.059Z,39.30
2023-10-31T03:05:04.113Z,39.31
2023-10-31T03:05:34.167Z,39.33
2023-10-31T03:06:04.168Z,39.32
2023-10-31T03:06:34.178Z,39.33
2023-10-31T03:07:04.285Z,39.34
2023-10-31T03:07:34.282Z,39.33
2023-10-31T03:08:04.417Z,39.33
2023-10-31T03:08:34.421Z,39.29
2023-10-31T03:09:04.431Z,39.30
2023-10-31T03:09:34.430Z,39.30
2023-10-31T03:10:34.493Z,39.27
2023-10-31T03:11:04.540Z,39.30
2023-10-31T03:11:34.538Z,39.31
2023-10-31T03:12:04.536Z,39.33
2023-10-31T03:12:34.647Z,39.24
2023-10-31T03:13:04.764Z,39.34
2023-10-31T03:13:34.777Z,39.27
2023-10-31T03:14:04.785Z,39.33
2023-10-31T03:14:34.895Z,39.30
2023-10-31T03:15:04.915Z,39.29
2023-10-31T03:15:34.891Z,39.29
2023-10-31T03:16:04.928Z,39.30
2023-10-31T03:16:35.056Z,39.30
2023-10-31T03:17:04.992Z,39.27
2023-10-31T03:17:35.075Z,39.31
2023-10-31T03:18:05.109Z,39.29
2023-10-31T03:18:35.183Z,39.29
2023-10-31T03:19:05.213Z,39.31
2023-10-31T03:19:35.250Z,39.34
2023-10-31T03:20:05.334Z,39.33
2023-10-31T03:20:35.353Z,39.30
2023-10-31T03:21:05.389Z,39.34
2023-10-31T03:21:35.420Z,39.29
2023-10-31T03:22:05.450Z,39.31
2023-10-31T03:22:35.490Z,39.29
2023-10-31T03:23:05.530Z,39.33
2023-10-31T03:23:35.566Z,39.31
2023-10-31T03:24:05.603Z,39.30
2023-10-31T03:24:35.636Z,39.32
2023-10-31T03:25:05.665Z,39.26
2023-10-31T03:25:35.694Z,39.30
2023-10-31T03:26:05.736Z,39.30
2023-10-31T03:26:35.811Z,39.28
2023-10-31T03:27:05.825Z,39.30
2023-10-31T03:27:35.867Z,39.29
2023-10-31T03:28:05.930Z,39.30
2023-10-31T03:28:35.962Z,39.32
2023-10-31T03:29:06.049Z,39.32
2023-10-31T03:29:36.073Z,39.29
2023-10-31T03:30:06.119Z,39.31
2023-10-31T03:30:36.169Z,39.31
2023-10-31T03:31:06.197Z,39.27
2023-10-31T03:31:36.250Z,39.29
2023-10-31T03:32:06.338Z,39.27
2023-10-31T03:32:36.418Z,39.27
2023-10-31T03:33:06.456Z,39.32
2023-10-31T03:33:36.479Z,39.29
2023-10-31T03:34:06.537Z,39.29
2023-10-31T03:34:36.575Z,39.33
2023-10-31T03:35:06.643Z,39.31
2023-10-31T03:35:36.682Z,39.28
2023-10-31T03:36:06.710Z,39.27
2023-10-31T03:36:36.759Z,39.36
2023-10-31T03:37:06.806Z,39.32
2023-10-31T03:37:36.836Z,39.28
2023-10-31T03:38:06.925Z,39.31
2023-10-31T03:38:37.122Z,39.28
2023-10-31T03:39:06.989Z,39.31
2023-10-31T03:39:37.024Z,39.31
2023-10-31T03:40:07.055Z,39.25
2023-10-31T03:40:37.100Z,39.31
2023-10-31T03:41:07.114Z,39.24
2023-10-31T03:41:37.212Z,39.32
2023-10-31T03:42:07.210Z,39.30
2023-10-31T03:42:37.237Z,39.35
2023-10-31T03:43:07.281Z,39.31
2023-10-31T03:43:37.312Z,39.28
2023-10-31T03:44:07.363Z,39.27
2023-10-31T03:44:37.392Z,39.28
2023-10-31T03:45:07.445Z,39.32
2023-10-31T03:45:37.473Z,39.30
2023-10-31T03:46:07.509Z,39.28
2023-10-31T03:46:37.603Z,39.35
2023-10-31T03:47:07.753Z,39.28
2023-10-31T03:47:37.639Z,39.31
2023-10-31T03:48:07.672Z,39.28
2023-10-31T03:48:37.700Z,39.31
2023-10-31T03:49:07.733Z,39.32
2023-10-31T03:49:37.774Z,39.28
2023-10-31T03:50:07.839Z,39.30
2023-10-31T03:50:37.916Z,39.34
2023-10-31T03:51:07.952Z,39.31
2023-10-31T03:51:37.984Z,39.28
2023-10-31T03:52:08.013Z,39.30
2023-10-31T03:52:38.041Z,39.31
2023-10-31T03:53:08.115Z,39.32
2023-10-31T03:53:38.150Z,39.37
2023-10-31T03:54:08.186Z,39.32
2023-10-31T03:54:38.228Z,39.32
2023-10-31T03:55:08.249Z,39.34
2023-10-31T03:55:38.313Z,39.37
2023-10-31T03:56:08.375Z,39.35
2023-10-31T03:56:38.425Z,39.34
2023-10-31T03:57:08.479Z,39.30
2023-10-31T03:57:38.492Z,39.30
2023-10-31T03:58:08.526Z,39.28
2023-10-31T03:58:38.676Z,39.23
2023-10-31T03:59:08.667Z,39.22
2023-10-31T03:59:38.692Z,39.22
2023-10-31T04:00:08.720Z,39.21
2023-10-31T04:00:38.775Z,39.22
2023-10-31T04:01:08.843Z,39.20
2023-10-31T04:01:38.928Z,39.25
2023-10-31T04:02:09.016Z,39.20
2023-10-31T04:02:39.088Z,39.16
2023-10-31T04:03:09.151Z,39.18
2023-10-31T04:03:39.254Z,39.18
2023-10-31T04:04:09.303Z,39.16
2023-10-31T04:04:39.441Z,39.15
2023-10-31T04:05:09.434Z,39.20
2023-10-31T04:05:39.492Z,39.14
2023-10-31T04:06:09.477Z,39.14
2023-10-31T04:06:39.597Z,39.11
2023-10-31T04:07:09.712Z,39.14
2023-10-31T04:07:39.862Z,39.14
2023-10-31T04:08:09.854Z,39.13
2023-10-31T04:08:39.840Z,39.14
2023-10-31T04:09:09.841Z,39.09
2023-10-31T04:10:09.920Z,39.06
2023-10-31T04:10:40.076Z,39.09
2023-10-31T04:11:10.096Z,39.09
2023-10-31T04:11:40.075Z,39.05
2023-10-31T04:12:10.072Z,39.05
2023-10-31T04:12:40.093Z,39.08
2023-10-31T04:13:10.183Z,39.08
2023-10-31T04:13:40.191Z,39.05
2023-10-31T04:14:10.265Z,39.04
2023-10-31T04:14:40.254Z,39.05
2023-10-31T04:15:10.374Z,39.05
2023-10-31T04:15:40.369Z,39.04
2023-10-31T04:16:10.423Z,39.04
2023-10-31T04:16:40.529Z,39.01
2023-10-31T04:17:10.552Z,39.02
2023-10-31T04:17:40.636Z,39.05
2023-10-31T04:18:10.802Z,39.01
2023-10-31T04:18:40.728Z,39.02
2023-10-31T04:19:10.752Z,38.99
2023-10-31T04:19:40.838Z,39.04
2023-10-31T04:20:10.898Z,39.03
2023-10-31T04:20:40.940Z,38.98
2023-10-31T04:21:10.963Z,39.02
2023-10-31T04:21:40.994Z,39.02
2023-10-31T04:22:11.017Z,39.01
2023-10-31T04:22:41.097Z,39.05
2023-10-31T04:23:11.160Z,39.01
2023-10-31T04:23:41.193Z,38.99
2023-10-31T04:24:11.217Z,39.00
2023-10-31T04:24:41.244Z,38.98
2023-10-31T04:25:11.277Z,38.99
2023-10-31T04:25:41.338Z,39.01
2023-10-31T04:26:11.436Z,39.01
2023-10-31T04:26:41.479Z,39.01
2023-10-31T04:27:11.504Z,38.98
2023-10-31T04:27:41.558Z,38.97
2023-10-31T04:28:11.533Z,39.04
2023-10-31T04:28:41.608Z,39.02
2023-10-31T04:29:11.682Z,39.00
2023-10-31T04:29:41.701Z,38.98
2023-10-31T04:30:14.882Z,38.94
2023-10-31T04:30:41.724Z,38.98
2023-10-31T04:31:11.789Z,38.98
2023-10-31T04:31:44.393Z,38.97
2023-10-31T04:32:11.984Z,38.97
2023-10-31T04:32:42.019Z,39.01
2023-10-31T04:33:11.968Z,39.01
2023-10-31T04:33:41.990Z,39.04
2023-10-31T04:34:12.069Z,39.06
2023-10-31T04:34:42.164Z,39.03
2023-10-31T04:35:12.319Z,38.94
2023-10-31T04:35:42.225Z,38.97
2023-10-31T04:36:12.265Z,38.97
2023-10-31T04:36:42.285Z,38.96
2023-10-31T04:37:12.335Z,38.95
2023-10-31T04:37:42.466Z,39.00
2023-10-31T04:38:12.454Z,38.92
2023-10-31T04:38:42.470Z,38.97
2023-10-31T04:39:12.500Z,38.98
2023-10-31T04:39:42.534Z,38.95
2023-10-31T04:40:12.574Z,38.90
2023-10-31T04:40:42.619Z,38.93
2023-10-31T04:41:12.666Z,38.96
2023-10-31T04:41:42.721Z,38.87
2023-10-31T04:42:12.775Z,38.83
2023-10-31T04:42:42.804Z,39.11
2023-10-31T04:43:12.881Z,38.96
2023-10-31T04:43:43.000Z,38.94
2023-10-31T04:44:13.086Z,39.07
2023-10-31T04:44:43.110Z,38.99
2023-10-31T04:45:13.140Z,38.99
2023-10-31T04:45:43.169Z,38.92
2023-10-31T04:46:13.251Z,38.95
2023-10-31T04:46:43.422Z,38.97
2023-10-31T04:47:13.573Z,38.97
2023-10-31T04:47:43.611Z,38.93
2023-10-31T04:48:13.600Z,38.87
2023-10-31T04:48:43.569Z,38.89
2023-10-31T04:49:13.594Z,38.92
2023-10-31T04:49:43.642Z,38.86
2023-10-31T04:50:13.760Z,38.93
2023-10-31T04:50:43.696Z,38.93
2023-10-31T04:51:13.763Z,38.95
2023-10-31T04:51:43.779Z,38.93
2023-10-31T04:52:13.815Z,38.94
2023-10-31T04:52:43.871Z,38.94
2023-10-31T04:53:13.934Z,38.97
2023-10-31T04:53:43.958Z,38.90
2023-10-31T04:54:13.994Z,38.91
2023-10-31T04:54:44.021Z,38.85
2023-10-31T04:55:15.465Z,38.85
2023-10-31T04:55:44.065Z,38.89
2023-10-31T04:56:14.141Z,38.85
2023-10-31T04:56:44.183Z,38.82
2023-10-31T04:57:14.217Z,38.82
2023-10-31T04:57:44.239Z,38.77
2023-10-31T04:58:14.270Z,38.77
2023-10-31T04:58:44.341Z,38.77
2023-10-31T04:59:14.427Z,38.75
2023-10-31T04:59:44.454Z,38.71
2023-10-31T05:00:14.482Z,38.69
2023-10-31T05:00:44.528Z,38.62
2023-10-31T05:01:14.602Z,38.66
2023-10-31T05:01:44.642Z,38.60
2023-10-31T05:02:14.755Z,38.58
2023-10-31T05:02:44.822Z,38.59
2023-10-31T05:03:17.838Z,38.58
2023-10-31T05:03:45.036Z,38.53
2023-10-31T05:04:15.034Z,38.54
2023-10-31T05:04:45.249Z,38.49
2023-10-31T05:05:15.363Z,38.45
2023-10-31T05:05:45.360Z,38.36
2023-10-31T05:06:15.353Z,38.35
2023-10-31T05:06:45.354Z,38.31
2023-10-31T05:07:15.466Z,38.32
2023-10-31T05:07:45.606Z,38.25
2023-10-31T05:08:15.647Z,38.25
2023-10-31T05:08:45.653Z,38.31
2023-10-31T05:09:15.714Z,38.19
2023-10-31T05:09:47.239Z,38.18
2023-10-31T05:10:15.934Z,38.20
2023-10-31T05:10:45.938Z,38.14
2023-10-31T05:11:16.085Z,38.18
2023-10-31T05:11:46.103Z,38.07
2023-10-31T05:12:16.112Z,38.04
2023-10-31T05:12:46.211Z,37.99
2023-10-31T05:13:16.330Z,37.97
2023-10-31T05:13:46.341Z,37.91
2023-10-31T05:14:16.484Z,37.92
2023-10-31T05:14:46.478Z,37.87
2023-10-31T05:15:16.490Z,37.80
2023-10-31T05:15:46.568Z,37.75
2023-10-31T05:16:16.632Z,37.78
2023-10-31T05:16:46.679Z,37.75
2023-10-31T05:17:16.730Z,37.73
2023-10-31T05:17:46.796Z,37.73
2023-10-31T05:18:16.801Z,37.76
2023-10-31T05:18:46.830Z,37.67
2023-10-31T05:19:16.881Z,37.63
2023-10-31T05:19:46.930Z,37.69
2023-10-31T05:20:16.991Z,37.63
2023-10-31T05:20:47.036Z,37.70
2023-10-31T05:21:17.059Z,37.66
2023-10-31T05:21:47.095Z,37.58
2023-10-31T05:22:17.141Z,37.64
2023-10-31T05:22:47.196Z,37.64
2023-10-31T05:23:17.266Z,37.60
2023-10-31T05:23:47.323Z,37.59
2023-10-31T05:24:17.355Z,37.64
2023-10-31T05:24:47.380Z,37.57
2023-10-31T05:25:17.412Z,37.52
2023-10-31T05:25:47.455Z,37.52
2023-10-31T05:26:17.530Z,37.53
2023-10-31T05:26:47.584Z,37.54
2023-10-31T05:27:17.605Z,37.55
2023-10-31T05:27:47.635Z,37.51
2023-10-31T05:28:17.665Z,37.48
2023-10-31T05:28:47.744Z,37.51
2023-10-31T05:29:17.783Z,37.48
2023-10-31T05:29:47.821Z,37.44
2023-10-31T05:30:17.845Z,37.45
2023-10-31T05:30:47.864Z,37.46
2023-10-31T05:31:17.898Z,37.41
2023-10-31T05:31:47.949Z,37.30
2023-10-31T05:32:18.009Z,37.42
2023-10-31T05:32:48.041Z,37.45
2023-10-31T05:33:18.119Z,37.45
2023-10-31T05:33:48.183Z,37.44
2023-10-31T05:34:18.178Z,37.37
2023-10-31T05:34:48.259Z,37.38
2023-10-31T05:35:18.315Z,37.38
2023-10-31T05:35:48.360Z,37.33
2023-10-31T05:36:18.386Z,37.40
2023-10-31T05:36:48.411Z,37.36
2023-10-31T05:37:18.436Z,37.36
2023-10-31T05:37:48.514Z,37.43
2023-10-31T05:38:18.588Z,37.46
2023-10-31T05:38:48.635Z,37.41
2023-10-31T05:39:18.660Z,37.36
2023-10-31T05:39:48.693Z,37.41
2023-10-31T05:40:18.733Z,37.33
2023-10-31T05:40:48.768Z,37.41
2023-10-31T05:41:18.835Z,37.34
2023-10-31T05:41:48.902Z,37.33
2023-10-31T05:42:18.934Z,37.32
2023-10-31T05:42:48.976Z,37.25
2023-10-31T05:43:19.009Z,37.34
2023-10-31T05:43:49.062Z,37.31
2023-10-31T05:44:19.118Z,37.27
2023-10-31T05:44:49.163Z,37.34
2023-10-31T05:45:19.217Z,37.28
2023-10-31T05:45:49.292Z,37.30
2023-10-31T05:46:19.369Z,37.26
2023-10-31T05:46:49.468Z,37.36
2023-10-31T05:47:19.555Z,37.28
2023-10-31T05:47:49.638Z,37.23
2023-10-31T05:48:19.657Z,37.30
2023-10-31T05:48:49.689Z,37.31
2023-10-31T05:49:19.782Z,37.29
2023-10-31T05:49:49.828Z,37.34
2023-10-31T05:50:19.893Z,37.37
2023-10-31T05:50:49.947Z,37.33
2023-10-31T05:51:20.063Z,37.31
2023-10-31T05:51:50.044Z,37.46
2023-10-31T05:52:20.103Z,37.46
2023-10-31T05:52:50.143Z,37.45
2023-10-31T05:53:20.272Z,37.46
2023-10-31T05:53:50.174Z,37.45
2023-10-31T05:54:20.296Z,37.54
2023-10-31T05:54:50.206Z,37.45
2023-10-31T05:55:20.307Z,37.45
2023-10-31T05:55:50.373Z,37.54
2023-10-31T05:56:20.448Z,37.59
2023-10-31T05:56:50.503Z,37.50
2023-10-31T05:57:20.545Z,37.58
2023-10-31T05:57:50.568Z,37.52
2023-10-31T05:58:20.763Z,37.54
2023-10-31T05:58:50.713Z,37.56
2023-10-31T05:59:20.704Z,37.59
2023-10-31T05:59:50.734Z,37.57
2023-10-31T06:00:20.802Z,37.54
2023-10-31T06:00:50.831Z,37.59
2023-10-31T06:01:20.933Z,37.53
2023-10-31T06:01:50.987Z,37.52
2023-10-31T06:02:21.053Z,37.50
2023-10-31T06:02:51.146Z,37.56
2023-10-31T06:03:21.214Z,37.54
2023-10-31T06:03:51.265Z,37.60
2023-10-31T06:04:21.657Z,37.72
2023-10-31T06:04:51.373Z,37.68
2023-10-31T06:05:21.426Z,37.69
2023-10-31T06:05:51.416Z,37.70
2023-10-31T06:06:21.418Z,37.70
2023-10-31T06:07:21.493Z,37.63
2023-10-31T06:07:51.528Z,37.67
2023-10-31T06:08:21.553Z,37.64
2023-10-31T06:08:51.544Z,37.63
2023-10-31T06:09:21.597Z,37.64
2023-10-31T06:09:51.655Z,37.58
2023-10-31T06:10:21.774Z,37.58
2023-10-31T06:10:51.819Z,37.58
2023-10-31T06:11:21.859Z,37.50
2023-10-31T06:11:51.841Z,37.57
2023-10-31T06:12:21.949Z,37.52
2023-10-31T06:12:51.948Z,37.46
2023-10-31T06:13:22.068Z,37.42
2023-10-31T06:13:52.208Z,37.38
2023-10-31T06:14:22.273Z,37.56
2023-10-31T06:14:52.255Z,37.50
2023-10-31T06:15:22.430Z,37.58
2023-10-31T06:15:52.527Z,37.52
2023-10-31T06:16:22.475Z,37.51
2023-10-31T06:16:52.512Z,37.50
2023-10-31T06:17:22.572Z,37.56
2023-10-31T06:17:52.614Z,37.56
2023-10-31T06:18:22.637Z,37.61
2023-10-31T06:18:52.659Z,37.61
2023-10-31T06:19:22.710Z,37.55
2023-10-31T06:19:53.015Z,37.57
2023-10-31T06:20:22.828Z,37.63
2023-10-31T06:21:22.876Z,37.69
2023-10-31T06:21:52.901Z,37.69
2023-10-31T06:22:22.949Z,37.64
2023-10-31T06:22:53.002Z,37.70
2023-10-31T06:23:23.114Z,37.70
2023-10-31T06:23:53.076Z,37.64
2023-10-31T06:24:23.130Z,37.65
2023-10-31T06:24:53.169Z,37.67
2023-10-31T06:25:23.190Z,37.61
2023-10-31T06:25:53.241Z,37.58
2023-10-31T06:26:23.285Z,37.62
2023-10-31T06:26:53.353Z,37.62
2023-10-31T06:27:23.382Z,37.56
2023-10-31T06:27:53.416Z,37.59
2023-10-31T06:28:23.448Z,37.67
2023-10-31T06:29:09.062Z,37.58
2023-10-31T06:29:43.009Z,37.57
2023-10-31T06:30:28.689Z,37.61
2023-10-31T06:30:53.735Z,37.61
2023-10-31T06:31:23.805Z,37.67
2023-10-31T06:31:53.987Z,37.56
2023-10-31T06:32:23.919Z,37.47
2023-10-31T06:32:53.967Z,37.52
2023-10-31T06:33:23.991Z,37.58
2023-10-31T06:33:54.040Z,37.58
2023-10-31T06:34:24.076Z,37.49
2023-10-31T06:34:54.122Z,37.57
2023-10-31T06:35:24.171Z,37.56